sensor_id;sensor_type;location;lat;lon;timestamp;pressure;altitude;pressure_sealevel;temperature;humidity
15558;BME280;7880;50.110;9.372;2023-04-27T00:03:58;4.930916545749642;;;4.687;100.0
15558;BME280;7880;50.110;9.372;2023-04-27T00:09:03;4.925874566618586;;;4.75;100.0
15558;BME280;7880;50.110;9.372;2023-04-27T00:14:07;4.845202940102899;;;4.687;100.0
15558;BME280;7880;50.110;9.372;2023-04-27T00:19:14;4.8351189920271285;;;4.625;100.0
15558;BME280;7880;50.110;9.372;2023-04-27T00:24:17;4.860328864399344;;;4.625;100.0
15558;BME280;7880;50.110;9.372;2023-04-27T00:29:21;4.794783211365575;;;4.687;100.0
15558;BME280;7880;50.110;9.372;2023-04-27T00:34:25;4.693943841202417;;;4.562;100.0
15558;BME280;7880;50.110;9.372;2023-04-27T00:39:29;4.608230468095281;;;4.5;100.0
15558;BME280;7880;50.110;9.372;2023-04-27T00:44:35;4.653608125733444;;;4.5;100.0
15558;BME280;7880;50.110;9.372;2023-04-27T00:49:39;4.638482237234712;;;4.5;100.0
15558;BME280;7880;50.110;9.372;2023-04-27T00:54:49;4.583020668482641;;;4.437;100.0
15558;BME280;7880;50.110;9.372;2023-04-27T00:59:19;4.502349358616629;;;4.312;100.0
15558;BME280;7880;50.110;9.372;2023-04-27T01:04:47;4.522517179098213;;;4.312;100.0
15558;BME280;7880;50.110;9.372;2023-04-27T01:09:28;4.335965017322451;;;4.0;100.0
15558;BME280;7880;50.110;9.372;2023-04-27T01:14:33;4.361174745630706;;;4.125;100.0
15558;BME280;7880;50.110;9.372;2023-04-27T01:19:40;4.335965017322451;;;4.062;100.0
15558;BME280;7880;50.110;9.372;2023-04-27T01:24:45;4.260335876053432;;;4.062;100.0
15558;BME280;7880;50.110;9.372;2023-04-27T01:29:52;4.038490772765362;;;3.875;100.0
15558;BME280;7880;50.110;9.372;2023-04-27T01:35:00;4.0485746288730295;;;3.875;100.0
15558;BME280;7880;50.110;9.372;2023-04-27T01:40:06;3.9628618890652434;;;3.875;100.0
15558;BME280;7880;50.110;9.372;2023-04-27T01:45:06;3.816646232927451;;;3.687;100.0
15558;BME280;7880;50.110;9.372;2023-04-27T01:50:06;3.9174845902773088;;;3.687;100.0
15558;BME280;7880;50.110;9.372;2023-04-27T01:55:12;3.897316909494111;;;3.687;100.0
15558;BME280;7880;50.110;9.372;2023-04-27T02:00:18;3.8216881480300797;;;3.625;100.0
15558;BME280;7880;50.110;9.372;2023-04-27T02:05:20;3.5847184528189246;;;3.437;100.0
15558;BME280;7880;50.110;9.372;2023-04-27T02:15:26;3.6805146351689473;;;3.437;100.0
15558;BME280;7880;50.110;9.372;2023-04-27T02:20:32;3.5695927494205533;;;3.375;100.0
15558;BME280;7880;50.110;9.372;2023-04-27T02:25:35;3.473796688724542;;;3.375;100.0
15558;BME280;7880;50.110;9.372;2023-04-27T02:30:39;3.5393413504818456;;;3.312;100.0
15558;BME280;7880;50.110;9.372;2023-04-27T02:35:43;3.6754727282153907;;;3.437;100.0
15558;BME280;7880;50.110;9.372;2023-04-27T02:40:52;3.650263197813183;;;3.437;100.0
15558;BME280;7880;50.110;9.372;2023-04-27T02:45:52;3.56455084886984;;;3.5;100.0
15558;BME280;7880;50.110;9.372;2023-04-27T02:50:58;3.5695927494205533;;;3.437;100.0
15558;BME280;7880;50.110;9.372;2023-04-27T02:56:00;3.6452212926058563;;;3.437;100.0
15558;BME280;7880;50.110;9.372;2023-04-27T03:01:09;3.5948022565396966;;;3.312;100.0
15558;BME280;7880;50.110;9.372;2023-04-27T03:06:17;3.5948022565396966;;;3.312;100.0
15558;BME280;7880;50.110;9.372;2023-04-27T03:11:16;3.56455084886984;;;3.375;100.0
15558;BME280;7880;50.110;9.372;2023-04-27T03:16:19;3.3275818512775004;;;3.25;100.0
15558;BME280;7880;50.110;9.372;2023-04-27T03:21:24;3.438503429689445;;;3.312;100.0
15558;BME280;7880;50.110;9.372;2023-04-27T03:26:28;3.5242156549415085;;;3.312;100.0
15558;BME280;7880;50.110;9.372;2023-04-27T03:31:32;3.448587216529995;;;3.312;100.0
15558;BME280;7880;50.110;9.372;2023-04-27T03:36:37;3.453629110386828;;;3.25;100.0
15558;BME280;7880;50.110;9.372;2023-04-27T03:41:41;3.3780007330933586;;;3.25;100.0
15558;BME280;7880;50.110;9.372;2023-04-27T03:46:45;3.38808451294899;;;3.125;100.0
15558;BME280;7880;50.110;9.372;2023-04-27T03:51:49;3.332623738149414;;;3.187;100.0
15558;BME280;7880;50.110;9.372;2023-04-27T03:56:54;3.514131859369809;;;3.187;100.0
15558;BME280;7880;50.110;9.372;2023-04-27T04:01:58;3.5847184528189246;;;3.375;100.0
15558;BME280;7880;50.110;9.372;2023-04-27T04:07:10;3.514131859369809;;;3.312;100.0
15558;BME280;7880;50.110;9.372;2023-04-27T04:12:06;3.256995465629734;;;3.187;100.0
15558;BME280;7880;50.110;9.372;2023-04-27T04:17:10;3.2368279373506086;;;3.125;100.0
15558;BME280;7880;50.110;9.372;2023-04-27T04:22:16;3.0603622635419017;;;2.937;100.0
15558;BME280;7880;50.110;9.372;2023-04-27T04:27:25;3.3427075127663555;;;3.125;100.0
15558;BME280;7880;50.110;9.372;2023-04-27T04:32:30;3.423377751611406;;;3.187;100.0
15558;BME280;7880;50.110;9.372;2023-04-27T04:37:32;3.458671004534699;;;3.375;100.0
15558;BME280;7880;50.110;9.372;2023-04-27T04:42:36;3.6048860614246223;;;3.5;100.0
15558;BME280;7880;50.110;9.372;2023-04-27T04:47:40;3.7359756308665966;;;3.625;100.0
15558;BME280;7880;50.110;9.372;2023-04-27T04:52:44;3.655305103311548;;;3.625;100.0
15558;BME280;7880;50.110;9.372;2023-04-27T04:57:48;3.705724174302304;;;3.625;100.0
15558;BME280;7880;50.110;9.372;2023-04-27T05:02:52;3.5242156549415085;;;3.5;100.0
15558;BME280;7880;50.110;9.372;2023-04-27T05:07:57;3.614969867473701;;;3.562;100.0
15558;BME280;7880;50.110;9.372;2023-04-27T05:13:04;3.877149233367527;;;3.75;100.0
15558;BME280;7880;50.110;9.372;2023-04-27T05:18:05;3.9477361201832535;;;3.937;100.0
15558;BME280;7880;50.110;9.372;2023-04-27T05:23:12;4.018323064042488;;;3.937;100.0
15558;BME280;7880;50.110;9.372;2023-04-27T05:28:20;3.877149233367527;;;4.0;100.0
15558;BME280;7880;50.110;9.372;2023-04-27T05:33:18;4.008239211427281;;;3.937;100.0
15558;BME280;7880;50.110;9.372;2023-04-27T05:38:22;4.174622928444296;;;4.125;100.0
15558;BME280;7880;50.110;9.372;2023-04-27T05:43:26;4.245210055657663;;;4.25;100.0
15558;BME280;7880;50.110;9.372;2023-04-27T05:48:30;4.250251995498547;;;4.187;100.0
15558;BME280;7880;50.110;9.372;2023-04-27T05:53:43;4.2401681161078155;;;4.25;100.0
15558;BME280;7880;50.110;9.372;2023-04-27T05:58:51;4.3813425335159994;;;4.312;100.0
15558;BME280;7880;50.110;9.372;2023-04-27T06:03:41;4.557810876145959;;;4.5;100.0
15558;BME280;7880;50.110;9.372;2023-04-27T06:08:48;4.804867154784733;;;4.75;100.0
15558;BME280;7880;50.110;9.372;2023-04-27T06:13:48;4.487223496311344;;;4.625;100.0
15558;BME280;7880;50.110;9.372;2023-04-27T06:18:51;5.062008105311543;;;5.062;100.0
15558;BME280;7880;50.110;9.372;2023-04-27T06:23:54;5.304023809079081;;;5.312;100.0
15558;BME280;7880;50.110;9.372;2023-04-27T06:28:58;5.55108219832764;;;5.562;100.0
15558;BME280;7880;50.110;9.372;2023-04-27T06:34:06;5.904023966571549;;;6.0;100.0
15558;BME280;7880;50.110;9.372;2023-04-27T06:39:08;6.0653692498861345;;;6.187;100.0
15558;BME280;7880;50.110;9.372;2023-04-27T06:44:14;6.332598030939698;;;6.437;100.0
15558;BME280;7880;50.110;9.372;2023-04-27T06:49:17;6.625038011209108;;;6.687;100.0
15558;BME280;7880;50.110;9.372;2023-04-27T06:54:21;6.8872264120960605;;;7.062;100.0
15558;BME280;7880;50.110;9.372;2023-04-27T06:59:26;7.073784022690961;;;7.25;100.0
15558;BME280;7880;50.110;9.372;2023-04-27T07:04:31;7.295636835001642;;;7.5;100.0
15558;BME280;7880;50.110;9.372;2023-04-27T07:09:37;7.663712061941624;;;7.812;100.0
15558;BME280;7880;50.110;9.372;2023-04-27T07:14:42;7.7746391467982905;;;7.937;100.0
15558;BME280;7880;50.110;9.372;2023-04-27T07:19:47;8.142716392088914;;;8.312;100.0
15558;BME280;7880;50.110;9.372;2023-04-27T07:25:06;8.056999634788372;;;8.25;100.0
15558;BME280;7880;50.110;9.372;2023-04-27T07:29:57;8.30406581047573;;;8.437;100.0
15558;BME280;7880;50.110;9.372;2023-04-27T07:35:04;8.445246796036372;;;8.687;98.91271291906713
15558;BME280;7880;50.110;9.372;2023-04-27T07:40:11;8.420035889022984;;;8.687;95.45662885516298
15558;BME280;7880;50.110;9.372;2023-04-27T07:45:09;9.050310747144977;;;9.125;95.11595106112146
15558;BME280;7880;50.110;9.372;2023-04-27T07:50:16;8.762904847809114;;;9.125;90.0065990780229
15558;BME280;7880;50.110;9.372;2023-04-27T07:55:17;9.060395181836792;;;9.375;87.79379257130854
15558;BME280;7880;50.110;9.372;2023-04-27T08:00:22;9.130986257275799;;;9.375;81.78534179268203
15558;BME280;7880;50.110;9.372;2023-04-27T08:05:27;8.883917742804623;;;9.187;82.96696083531926
15558;BME280;7880;50.110;9.372;2023-04-27T08:10:32;9.025099665508606;;;9.25;82.4802547799936
15558;BME280;7880;50.110;9.372;2023-04-27T08:15:35;9.438562323153018;;;9.625;82.00109139227584
15558;BME280;7880;50.110;9.372;2023-04-27T08:20:39;9.433520083833718;;;9.625;80.1361648677465
15558;BME280;7880;50.110;9.372;2023-04-27T08:25:43;9.29737973222509;;;9.437;81.6511297893579
15558;BME280;7880;50.110;9.372;2023-04-27T08:30:47;9.841942411661147;;;9.937;84.0765103816881
15558;BME280;7880;50.110;9.372;2023-04-27T08:35:53;9.731012701638974;;;10.0;81.99540474029916
15558;BME280;7880;50.110;9.372;2023-04-27T08:40:58;9.867153729038545;;;10.062;79.29394602513234
15558;BME280;7880;50.110;9.372;2023-04-27T08:46:02;10.023464059177787;;;10.187;80.52658226862928
15558;BME280;7880;50.110;9.372;2023-04-27T08:53:15;10.62349663368077;;;10.875;81.45439607299063
15558;BME280;7880;50.110;9.372;2023-04-27T08:58:12;11.183194598951378;;;11.187;85.05955012006636
15558;BME280;7880;50.110;9.372;2023-04-27T09:03:20;11.505904965498484;;;11.625;82.57712999776815
15558;BME280;7880;50.110;9.372;2023-04-27T09:08:20;11.505904965498484;;;11.687;79.67243518131247
15558;BME280;7880;50.110;9.372;2023-04-27T09:13:33;11.24874504567706;;;11.562;72.3308511832011
15558;BME280;7880;50.110;9.372;2023-04-27T09:18:29;11.389930790296058;;;11.5;73.6134710245171
15558;BME280;7880;50.110;9.372;2023-04-27T09:23:38;11.52103204317973;;;11.5;76.27654220863175
15558;BME280;7880;50.110;9.372;2023-04-27T09:28:38;11.359676682954888;;;11.562;72.71975848665316
15558;BME280;7880;50.110;9.372;2023-04-27T09:33:54;11.047051520604873;;;11.375;71.97154076023045
15558;BME280;7880;50.110;9.372;2023-04-27T09:38:50;11.067220852157334;;;11.25;71.50402600559703
15558;BME280;7880;50.110;9.372;2023-04-27T09:43:53;11.107559529232095;;;11.187;73.1466230526588
15558;BME280;7880;50.110;9.372;2023-04-27T09:48:58;11.203363961935974;;;11.25;71.48868841148992
15558;BME280;7880;50.110;9.372;2023-04-27T09:54:03;10.936120280303294;;;11.062;70.59204209350379
15558;BME280;7880;50.110;9.372;2023-04-27T09:59:17;11.289083806570853;;;11.312;69.14229677713256
15558;BME280;7880;50.110;9.372;2023-04-27T10:04:25;11.157982901768992;;;11.25;70.84691053139196
15558;BME280;7880;50.110;9.372;2023-04-27T10:09:19;11.470608461095253;;;11.437;70.84535432679213
15558;BME280;7880;50.110;9.372;2023-04-27T10:14:22;11.889125074096956;;;11.812;68.89682459178123
15558;BME280;7880;50.110;9.372;2023-04-27T10:19:30;11.526074402988888;;;11.75;67.42749413971143
15558;BME280;7880;50.110;9.372;2023-04-27T10:24:33;11.354634332749992;;;11.437;65.96768687414765
15558;BME280;7880;50.110;9.372;2023-04-27T10:29:42;11.309253194002668;;;11.312;66.70421437784536
15558;BME280;7880;50.110;9.372;2023-04-27T10:34:39;11.289083806570853;;;11.25;65.91037952917684
15558;BME280;7880;50.110;9.372;2023-04-27T10:39:45;11.702557179663563;;;11.625;68.3280474706873
15558;BME280;7880;50.110;9.372;2023-04-27T10:44:55;11.581540380098158;;;11.687;68.62557108031399
15558;BME280;7880;50.110;9.372;2023-04-27T10:50:03;11.682387701427796;;;11.687;69.45724747107006
15558;BME280;7880;50.110;9.372;2023-04-27T10:55:12;11.60170983505086;;;11.625;70.53896529165971
15558;BME280;7880;50.110;9.372;2023-04-27T11:00:11;11.576498017087578;;;11.625;67.7164520177681
15558;BME280;7880;50.110;9.372;2023-04-27T11:05:21;11.939548897743226;;;11.875;67.63683369577248
15558;BME280;7880;50.110;9.372;2023-04-27T11:09:51;12.070650975429453;;;12.062;67.29705928118422
15558;BME280;7880;50.110;9.372;2023-04-27T11:14:56;12.171498861373403;;;12.187;66.52089542662453
15558;BME280;7880;50.110;9.372;2023-04-27T11:20:05;12.685824890527874;;;12.687;70.48626570007583
15558;BME280;7880;50.110;9.372;2023-04-27T11:25:08;12.564806728903203;;;12.625;65.99168824690622
15558;BME280;7880;50.110;9.372;2023-04-27T11:30:19;12.34294053465128;;;12.437;63.71973579696709
15558;BME280;7880;50.110;9.372;2023-04-27T11:35:16;12.605146097484976;;;12.562;64.48375690894228
15558;BME280;7880;50.110;9.372;2023-04-27T11:40:24;12.705994600430131;;;12.687;65.03108585130956
15558;BME280;7880;50.110;9.372;2023-04-27T11:45:27;12.721121885912726;;;12.812;64.13586660481171
15558;BME280;7880;50.110;9.372;2023-04-27T11:50:31;12.8623100100609;;;12.937;64.6169514912914
15558;BME280;7880;50.110;9.372;2023-04-27T11:55:35;12.842140264069894;;;12.875;62.790434291923376
15558;BME280;7880;50.110;9.372;2023-04-27T12:00:39;12.660612759698415;;;12.812;60.56654662283871
15558;BME280;7880;50.110;9.372;2023-04-27T12:05:47;12.746334034204484;;;12.75;62.32830718089253
15558;BME280;7880;50.110;9.372;2023-04-27T12:10:54;12.852225136483321;;;12.875;61.458612840292716
15558;BME280;7880;50.110;9.372;2023-04-27T12:15:55;13.114432227850193;;;13.187;62.48815556533579
15558;BME280;7880;50.110;9.372;2023-04-27T12:20:59;12.98332858379581;;;13.0;59.675778553062244
15558;BME280;7880;50.110;9.372;2023-04-27T12:26:06;13.003498362383107;;;13.062;59.6555906458426
15558;BME280;7880;50.110;9.372;2023-04-27T12:31:08;13.265705907769734;;;13.312;61.54066420413152
15558;BME280;7880;50.110;9.372;2023-04-27T12:36:17;13.558169098343933;;;13.562;63.06732290489579
15558;BME280;7880;50.110;9.372;2023-04-27T12:41:17;13.94139820933924;;;13.937;62.835075471250015
15558;BME280;7880;50.110;9.372;2023-04-27T12:46:21;13.608593885326991;;;13.687;63.95806241260055
15558;BME280;7880;50.110;9.372;2023-04-27T12:51:31;13.45227714041248;;;13.562;60.29633568508907
15558;BME280;7880;50.110;9.372;2023-04-27T12:56:29;14.133013395225863;;;14.062;63.22442051900622
15558;BME280;7880;50.110;9.372;2023-04-27T13:01:34;13.769953399250516;;;13.937;57.37420477361631
15558;BME280;7880;50.110;9.372;2023-04-27T13:06:37;13.477489499707008;;;13.562;56.41792661327865
15558;BME280;7880;50.110;9.372;2023-04-27T13:11:42;14.032163245003904;;;14.062;61.488496373318995
15558;BME280;7880;50.110;9.372;2023-04-27T13:16:56;14.35992665886879;;;14.437;60.547875047362304
15558;BME280;7880;50.110;9.372;2023-04-27T13:21:52;13.946440708846785;;;14.125;55.80470891147131
15558;BME280;7880;50.110;9.372;2023-04-27T13:26:58;14.102758337935665;;;14.125;56.75546829197176
15558;BME280;7880;50.110;9.372;2023-04-27T13:32:11;14.04729076011572;;;14.062;58.40530422160135
15558;BME280;7880;50.110;9.372;2023-04-27T13:37:04;14.23890617825091;;;14.312;56.468321626515
15558;BME280;7880;50.110;9.372;2023-04-27T13:42:11;14.491032368713059;;;14.375;58.45393353305775
15558;BME280;7880;50.110;9.372;2023-04-27T13:47:13;14.148140927799977;;;14.312;57.37075885814924
15558;BME280;7880;50.110;9.372;2023-04-27T13:52:16;14.1279708849499;;;14.187;57.033902502873374
15558;BME280;7880;50.110;9.372;2023-04-27T13:57:25;14.405309382319682;;;14.437;59.87870044450438
15558;BME280;7880;50.110;9.372;2023-04-27T14:02:26;14.364969182532514;;;14.562;57.49833125109738
15558;BME280;7880;50.110;9.372;2023-04-27T14:07:34;14.586840511864285;;;14.687;60.682821507194845
15558;BME280;7880;50.110;9.372;2023-04-27T14:12:36;14.566670367732877;;;14.75;57.273049680930114
15558;BME280;7880;50.110;9.372;2023-04-27T14:17:41;14.54145769411698;;;14.625;57.33591195378447
15558;BME280;7880;50.110;9.372;2023-04-27T14:22:46;14.314543958992;;;14.5;55.0896142392245
15558;BME280;7880;50.110;9.372;2023-04-27T14:27:59;14.617095736792544;;;14.75;55.988777426807005
15558;BME280;7880;50.110;9.372;2023-04-27T14:33:01;14.990244372381131;;;15.062;59.877458924289044
15558;BME280;7880;50.110;9.372;2023-04-27T14:38:07;14.919648562330986;;;15.062;57.252131730038066
15558;BME280;7880;50.110;9.372;2023-04-27T14:43:15;14.622138275299221;;;14.625;56.26665554583336
15558;BME280;7880;50.110;9.372;2023-04-27T14:48:16;14.66247859383002;;;14.875;54.917198672553546
15558;BME280;7880;50.110;9.372;2023-04-27T14:53:20;14.682648760080337;;;14.75;57.870987321242524
15558;BME280;7880;50.110;9.372;2023-04-27T14:58:23;15.32809653878212;;;15.437;59.403635118189364
15558;BME280;7880;50.110;9.372;2023-04-27T15:03:27;14.854095361218787;;;15.062;61.38020285317409
15558;BME280;7880;50.110;9.372;2023-04-27T15:08:31;14.465819716925035;;;14.687;60.79882365882637
15558;BME280;7880;50.110;9.372;2023-04-27T15:13:37;14.289331358135678;;;14.312;60.853081603286334
15558;BME280;7880;50.110;9.372;2023-04-27T15:18:40;14.712904018186965;;;14.625;64.03211400772953
15558;BME280;7880;50.110;9.372;2023-04-27T15:23:44;14.728031651169294;;;14.812;57.45143051470505
15558;BME280;7880;50.110;9.372;2023-04-27T15:28:49;14.576755439216504;;;14.687;58.46350723269898
15558;BME280;7880;50.110;9.372;2023-04-27T15:33:54;14.74315928677097;;;14.75;56.73130682631802
15558;BME280;7880;50.110;9.372;2023-04-27T15:38:58;14.934776231111027;;;14.875;58.652047790628714
15558;BME280;7880;50.110;9.372;2023-04-27T15:44:04;15.393650095543126;;;15.375;63.52989497264474
15558;BME280;7880;50.110;9.372;2023-04-27T15:49:08;14.627180814096937;;;14.812;60.0290666586918
15558;BME280;7880;50.110;9.372;2023-04-27T15:54:16;14.344799089623848;;;14.375;60.37651510097848
15558;BME280;7880;50.110;9.372;2023-04-27T15:59:18;14.531372626707888;;;14.437;63.104652904561625
15558;BME280;7880;50.110;9.372;2023-04-27T16:04:22;14.531372626707888;;;14.5;61.196892009662456
15558;BME280;7880;50.110;9.372;2023-04-27T16:09:32;14.344799089623848;;;14.375;61.60206966648439
15558;BME280;7880;50.110;9.372;2023-04-27T16:14:05;14.672563676373102;;;14.562;67.05438124440633
15558;BME280;7880;50.110;9.372;2023-04-27T16:19:16;14.738116741279374;;;14.75;65.08855300346197
15558;BME280;7880;50.110;9.372;2023-04-27T16:24:13;14.76332947164774;;;14.812;66.11282909800056
15558;BME280;7880;50.110;9.372;2023-04-27T16:29:19;14.823840054217726;;;14.812;63.48467717010006
15558;BME280;7880;50.110;9.372;2023-04-27T16:34:24;14.818797504069517;;;14.875;67.18692049571949
15558;BME280;7880;50.110;9.372;2023-04-27T16:39:34;14.697776387823978;;;14.687;64.8942006803084
15558;BME280;7880;50.110;9.372;2023-04-27T16:44:33;14.601968123018741;;;14.625;65.67614506667486
15558;BME280;7880;50.110;9.372;2023-04-27T16:49:37;14.465819716925035;;;14.5;63.94754678951825
15558;BME280;7880;50.110;9.372;2023-04-27T16:54:41;14.551542762690223;;;14.5;64.41621715082255
15558;BME280;7880;50.110;9.372;2023-04-27T16:59:44;14.657436052995035;;;14.687;65.57862114536428
15558;BME280;7880;50.110;9.372;2023-04-27T17:04:49;14.536415160266916;;;14.5;66.51282651188711
15558;BME280;7880;50.110;9.372;2023-04-27T17:09:53;14.450692129344679;;;14.437;65.70876169718656
15558;BME280;7880;50.110;9.372;2023-04-27T17:15:00;14.380096755269914;;;14.375;68.49671750773616
15558;BME280;7880;50.110;9.372;2023-04-27T17:20:01;14.18848102746997;;;14.187;65.03180734585048
15558;BME280;7880;50.110;9.372;2023-04-27T17:25:06;14.163268462993438;;;14.125;65.54085029739606
15558;BME280;7880;50.110;9.372;2023-04-27T17:30:10;14.09267332116724;;;14.062;66.47208682296704
15558;BME280;7880;50.110;9.372;2023-04-27T17:35:13;14.01199322892935;;;14.0;69.61207633932712
15558;BME280;7880;50.110;9.372;2023-04-27T17:40:20;13.921228214219445;;;13.875;68.22445088560127
15558;BME280;7880;50.110;9.372;2023-04-27T17:45:23;13.71448603272438;;;13.687;68.93156130788012
15558;BME280;7880;50.110;9.372;2023-04-27T17:50:27;13.633806289732457;;;13.625;68.628392628137
15558;BME280;7880;50.110;9.372;2023-04-27T17:55:30;13.502701866277494;;;13.437;69.57909050290247
15558;BME280;7880;50.110;9.372;2023-04-27T18:00:40;13.316130525950575;;;13.312;75.09617860732253
15558;BME280;7880;50.110;9.372;2023-04-27T18:05:40;13.05392282922403;;;13.0;83.00472699911143
15558;BME280;7880;50.110;9.372;2023-04-27T18:10:43;12.88247976070852;;;12.75;89.07988635224893
15558;BME280;7880;50.110;9.372;2023-04-27T18:15:47;12.514382544369436;;;12.312;98.53023618868073
15558;BME280;7880;50.110;9.372;2023-04-27T18:20:51;12.519424961513142;;;12.25;98.48372818512804
15558;BME280;7880;50.110;9.372;2023-04-27T18:26:01;12.257219655957305;;;12.0;100.0
15558;BME280;7880;50.110;9.372;2023-04-27T18:30:59;12.075693366961787;;;11.812;100.0
15558;BME280;7880;50.110;9.372;2023-04-27T18:36:06;11.924421747593442;;;11.625;100.0
15558;BME280;7880;50.110;9.372;2023-04-27T18:41:08;11.642048758926103;;;11.375;100.0
15558;BME280;7880;50.110;9.372;2023-04-27T18:46:13;11.67734533259645;;;11.25;100.0
15558;BME280;7880;50.110;9.372;2023-04-27T18:51:17;11.53615912348032;;;11.125;100.0
15558;BME280;7880;50.110;9.372;2023-04-27T18:56:21;11.152940563205629;;;10.75;100.0
15558;BME280;7880;50.110;9.372;2023-04-27T19:01:26;11.263872078829445;;;10.687;100.0
15558;BME280;7880;50.110;9.372;2023-04-27T19:06:29;11.218490987230325;;;10.75;100.0
15558;BME280;7880;50.110;9.372;2023-04-27T19:11:41;10.774766000412637;;;10.562;100.0
15558;BME280;7880;50.110;9.372;2023-04-27T19:16:47;10.840316140674986;;;10.5;100.0
15558;BME280;7880;50.110;9.372;2023-04-27T19:21:55;10.825189180864253;;;10.312;100.0
15558;BME280;7880;50.110;9.372;2023-04-27T19:26:59;10.60836971141398;;;10.062;100.0
15558;BME280;7880;50.110;9.372;2023-04-27T19:32:05;10.3260009765625;;;9.937;100.0
15558;BME280;7880;50.110;9.372;2023-04-27T19:37:08;10.497439028159715;;;9.937;100.0
15558;BME280;7880;50.110;9.372;2023-04-27T19:42:14;10.270535796607145;;;9.812;100.0
15558;BME280;7880;50.110;9.372;2023-04-27T19:47:17;9.96295680142939;;;9.5;100.0
15558;BME280;7880;50.110;9.372;2023-04-27T19:52:21;10.159605542343343;;;9.75;100.0
15558;BME280;7880;50.110;9.372;2023-04-27T19:57:26;9.882280522957444;;;9.375;100.0
15558;BME280;7880;50.110;9.372;2023-04-27T20:02:30;9.725970445439453;;;9.25;100.0
15558;BME280;7880;50.110;9.372;2023-04-27T20:07:39;9.468815765180626;;;9.125;100.0
15558;BME280;7880;50.110;9.372;2023-04-27T20:12:39;9.342759825853864;;;8.937;100.0
15558;BME280;7880;50.110;9.372;2023-04-27T20:17:43;9.004930805438198;;;8.687;100.0
15558;BME280;7880;50.110;9.372;2023-04-27T20:22:50;9.25704189101234;;;8.687;100.0
15558;BME280;7880;50.110;9.372;2023-04-27T20:27:51;9.4133511294669;;;8.875;100.0
15558;BME280;7880;50.110;9.372;2023-04-27T20:32:55;9.161239592783385;;;8.875;100.0
15558;BME280;7880;50.110;9.372;2023-04-27T20:37:59;9.035184097290038;;;8.625;100.0
15558;BME280;7880;50.110;9.372;2023-04-27T20:43:03;9.040226313617314;;;8.625;100.0
15558;BME280;7880;50.110;9.372;2023-04-27T20:48:08;9.045268530235626;;;8.562;100.0
15558;BME280;7880;50.110;9.372;2023-04-27T20:53:10;9.166281816386618;;;8.687;100.0
15558;BME280;7880;50.110;9.372;2023-04-27T20:58:14;9.090648492897163;;;8.75;100.0
15558;BME280;7880;50.110;9.372;2023-04-27T21:03:21;8.989804163441296;;;8.562;100.0
15558;BME280;7880;50.110;9.372;2023-04-27T21:08:23;9.004930805438198;;;8.687;100.0
15558;BME280;7880;50.110;9.372;2023-04-27T21:13:28;8.97971973689855;;;8.625;100.0
15558;BME280;7880;50.110;9.372;2023-04-27T21:18:14;8.994846377149225;;;8.625;100.0
15558;BME280;7880;50.110;9.372;2023-04-27T21:23:21;9.085606273659504;;;8.687;100.0
15558;BME280;7880;50.110;9.372;2023-04-27T21:28:29;8.894002158287913;;;8.562;100.0
15558;BME280;7880;50.110;9.372;2023-04-27T21:33:27;8.722567253396846;;;8.375;100.0
15558;BME280;7880;50.110;9.372;2023-04-27T21:38:31;8.904086574935354;;;8.5;100.0
15558;BME280;7880;50.110;9.372;2023-04-27T21:43:34;8.813326867017896;;;8.5;100.0
15558;BME280;7880;50.110;9.372;2023-04-27T21:48:37;8.798200258199358;;;8.5;100.0
15558;BME280;7880;50.110;9.372;2023-04-27T21:53:40;8.707440660294377;;;8.437;100.0
15558;BME280;7880;50.110;9.372;2023-04-27T21:58:56;8.717525055404986;;;8.375;100.0
15558;BME280;7880;50.110;9.372;2023-04-27T22:03:49;8.641892120451667;;;8.312;100.0
15558;BME280;7880;50.110;9.372;2023-04-27T22:08:53;8.576343629794428;;;8.25;100.0
15558;BME280;7880;50.110;9.372;2023-04-27T22:13:56;8.697356266347924;;;8.375;100.0
15558;BME280;7880;50.110;9.372;2023-04-27T22:19:00;8.576343629794428;;;8.312;100.0
15558;BME280;7880;50.110;9.372;2023-04-27T22:24:05;8.510795188322664;;;8.187;100.0
15558;BME280;7880;50.110;9.372;2023-04-27T22:29:20;8.67214528657496;;;8.375;100.0
15558;BME280;7880;50.110;9.372;2023-04-27T22:34:14;8.697356266347924;;;8.375;100.0
15558;BME280;7880;50.110;9.372;2023-04-27T22:39:18;8.606596773216733;;;8.375;100.0